Meteo Giornale » Osservazioni meteo Italia » Verona-Villafranca

ore: 12:20 - Osservazioni Meteo Verona-Villafranca
Lat. 45° 23' N Lon. 10° 52' E Alt. 67 metri s.l.m.

poco_nuvoloso Europe/Rome

27 °C

Poco Nuvoloso

Temp. 24 Ore

0 °C

31 °C

Nord

5.5 Km/h

Dew point 18 °C

Umidità 57 %

Visibilità  10 Km

Il sole sorge alle ore 05:42

Il sole tramonta alle ore 21:02

Data e Ora Cielo e Fenomeni T °C DP °C Um. % Pres. hPa Vis. km Vento km/h
Oggi h: 12:20 poco_nuvoloso Poco Nuvoloso 27 18 57 1012 10 N 5.5
Oggi h: 11:50 nuvoloso Nuvoloso 26 17 57 1012 10 SO 7.4
Oggi h: 11:20 sereno Sereno 25 17 61 1013 10 N 5.5
Oggi h: 10:50 nuvoloso Nuvoloso 25 17 61 1013 10 N 5.5
Oggi h: 10:20 poco_nuvoloso Poco Nuvoloso 25 17 61 1013 10 N 5.5
Oggi h: 09:50 sereno Sereno 24 19 73 1013 10 N 5.5
Oggi h: 09:20 sereno Sereno 0 0 88 0 10 N 0
Oggi h: 08:50 poco_nuvoloso Poco Nuvoloso 0 0 83 0 10 N 0
Oggi h: 08:20 poco_nuvoloso Poco Nuvoloso 0 0 88 0 10 N 0
Oggi h: 07:50 poco_nuvoloso Poco Nuvoloso 0 0 88 0 10 N 0
Oggi h: 07:20 nuvoloso Nuvoloso 0 0 88 0 10 N 0
Oggi h: 06:50 poco_nuvoloso Poco Nuvoloso 0 0 93 0 10 N 0
Oggi h: 06:20 poco_nuvoloso Poco Nuvoloso 0 0 93 0 10 N 0
Oggi h: 05:50 poco_nuvoloso Poco Nuvoloso 0 0 93 0 10 N 0
Oggi h: 05:20 poco_nuvoloso Poco Nuvoloso 0 0 100 0 10 N 0
Oggi h: 04:50 coperto_pioggia Pioggia Debole 0 0 94 0 10 N 0
Oggi h: 04:20 nuvoloso_temporali Temporale con Pioggia Debole 0 0 94 0 10 N 0
Oggi h: 03:50 nuvoloso_temporali Temporale con Pioggia 18 17 93 1015 3 NO 11.1
Oggi h: 03:20 nuvoloso_temporali Temporale con Pioggia Debole 21 18 82 1012 10 N 46.3
Oggi h: 02:50 coperto_temporali Temporale 23 16 64 1012 10 E/NE 13
Oggi h: 02:20 coperto_temporali Temporale 23 16 64 1012 10 E 18.5
Oggi h: 01:50 nuvoloso Nuvoloso 23 16 64 1013 10 E/NE 18.5
Oggi h: 01:20 nuvoloso Nuvoloso 23 17 68 1013 10 E/NE 16.7
Oggi h: 00:50 nuvoloso Nuvoloso 24 17 64 1013 10 E/NE 22.2
Oggi h: 00:20 poco_nuvoloso Poco Nuvoloso 24 17 64 1013 10 E/NE 20.3
Ieri h: 23:50 poco_nuvoloso Poco Nuvoloso 26 18 61 1013 10 E/NE 14.8
Ieri h: 23:20 poco_nuvoloso Poco Nuvoloso 26 19 65 1013 10 E 14.8
Ieri h: 22:50 poco_nuvoloso Poco Nuvoloso 25 19 69 1013 10 E 7.4
Ieri h: 22:20 poco_nuvoloso Poco Nuvoloso 26 19 65 1012 10 N 1.8
Ieri h: 21:50 poco_nuvoloso Poco Nuvoloso 27 18 57 1012 10 N 1.8
Ieri h: 21:20 nuvoloso Nuvoloso 27 20 65 1012 10 N 1.8
Ieri h: 20:20 poco_nuvoloso Poco Nuvoloso 29 20 58 1011 10 S/SE 7.4
Ieri h: 19:50 poco_nuvoloso Poco Nuvoloso 30 18 48 1011 10 S/SE 7.4
Ieri h: 19:20 poco_nuvoloso Poco Nuvoloso 31 17 43 1011 10 S/SE 7.4
Ieri h: 18:50 poco_nuvoloso Poco Nuvoloso 31 18 45 1011 10 S/SE 7.4
Ieri h: 18:20 poco_nuvoloso Poco Nuvoloso 31 18 45 1012 10 SE 7.4
Ieri h: 17:50 poco_nuvoloso Poco Nuvoloso 31 18 45 1012 10 N 5.5
Ieri h: 17:20 poco_nuvoloso Poco Nuvoloso 31 17 43 1012 10 N 5.5
Ieri h: 16:50 poco_nuvoloso Poco Nuvoloso 31 18 45 1012 10 N 5.5
Ieri h: 16:20 poco_nuvoloso Poco Nuvoloso 31 18 45 1012 10 N 5.5
Ieri h: 15:50 poco_nuvoloso Poco Nuvoloso 31 18 45 1012 10 N 7.4
Ieri h: 15:20 poco_nuvoloso Poco Nuvoloso 31 19 48 1013 10 N 7.4
Ieri h: 14:50 poco_nuvoloso Poco Nuvoloso 30 20 55 1013 10 S/SE 7.4
Ieri h: 14:20 poco_nuvoloso Poco Nuvoloso 29 19 54 1014 10 SE 9.3
Ieri h: 13:50 poco_nuvoloso Poco Nuvoloso 30 19 51 1014 10 N 7.4
Ieri h: 13:20 poco_nuvoloso Poco Nuvoloso 29 19 54 1014 10 S/SE 7.4
Ieri h: 12:50 poco_nuvoloso Poco Nuvoloso 28 19 58 1014 10 E/SE 7.4